Time;durP1;ratioP1;P1;durP2;ratioP2;P2;SDS_P1;SDS_P2;PMS_P1;PMS_P2;Temp;Humidity;BMP_temperature;BMP_pressure;BME280_temperature;BME280_humidity;BME280_pressure;Samples;Min_cycle;Max_cycle;Signal;HPM_P1;HPM_P2
2022/12/24 00:00:11;;;;;;;;;;;;;;;11.95;100.00;97222.06;5122107;28;20011;-59
2022/12/24 00:02:38;;;;;;;;;;;;;;;11.86;100.00;97224.59;5123228;28;19930;-60
2022/12/24 00:05:05;;;;;;;;;;;;;;;11.88;100.00;97224.31;5121264;28;19935;-60
2022/12/24 00:07:32;;;;;;;;;;;;;;;11.89;100.00;97237.38;5119520;28;19967;-59
2022/12/24 00:09:58;;;;;;;;;;;;;;;11.93;100.00;97244.84;5120262;28;19987;-59
2022/12/24 00:12:25;;;;;;;;;;;;;;;11.81;100.00;97240.72;5123073;28;19963;-59
2022/12/24 00:14:51;;;;;;;;;;;;;;;11.75;100.00;97235.72;5122926;28;19919;-59
2022/12/24 00:17:17;;;;;;;;;;;;;;;11.83;100.00;97243.88;5111033;28;19924;-59
2022/12/24 00:19:45;;;;;;;;;;;;;;;11.80;100.00;97249.81;5119318;28;20054;-59
2022/12/24 00:22:11;;;;;;;;;;;;;;;11.75;100.00;97231.16;5119529;28;19959;-59
2022/12/24 00:24:38;;;;;;;;;;;;;;;11.70;100.00;97241.91;5112002;28;19959;-60
2022/12/24 00:27:04;;;;;;;;;;;;;;;11.70;100.00;97233.88;5120839;28;19951;-58
2022/12/24 00:29:31;;;;;;;;;;;;;;;11.64;100.00;97221.63;5119197;28;19928;-59
2022/12/24 00:31:57;;;;;;;;;;;;;;;11.74;100.00;97239.47;5119990;28;19963;-59
2022/12/24 00:34:24;;;;;;;;;;;;;;;11.64;100.00;97244.88;5122582;28;19950;-59
2022/12/24 00:36:52;;;;;;;;;;;;;;;11.66;100.00;97243.56;5122609;28;19924;-59
2022/12/24 00:39:18;;;;;;;;;;;;;;;11.60;100.00;97258.06;5110675;28;19966;-59
2022/12/24 00:41:44;;;;;;;;;;;;;;;11.62;100.00;97237.16;5119016;28;19924;-60
2022/12/24 00:44:11;;;;;;;;;;;;;;;11.71;100.00;97243.50;5121717;28;20006;-60
2022/12/24 00:46:38;;;;;;;;;;;;;;;11.68;100.00;97260.09;5122349;28;19924;-58
2022/12/24 00:49:06;;;;;;;;;;;;;;;11.73;100.00;97268.09;5102016;28;20435;-58
2022/12/24 00:51:32;;;;;;;;;;;;;;;11.60;100.00;97266.09;5118845;28;19928;-59
2022/12/24 00:54:00;;;;;;;;;;;;;;;11.55;100.00;97270.66;5105791;28;20004;-59
2022/12/24 00:56:27;;;;;;;;;;;;;;;11.52;100.00;97268.56;5122113;28;19920;-61
2022/12/24 00:58:54;;;;;;;;;;;;;;;11.71;100.00;97283.63;5121610;28;19951;-60
2022/12/24 01:01:21;;;;;;;;;;;;;;;11.60;100.00;97278.66;5118451;28;19960;-59
2022/12/24 01:03:47;;;;;;;;;;;;;;;11.58;100.00;97278.13;5118397;28;19928;-60
2022/12/24 01:06:13;;;;;;;;;;;;;;;11.57;100.00;97288.03;5121634;28;19991;-59
2022/12/24 01:08:40;;;;;;;;;;;;;;;11.65;100.00;97290.09;5122072;28;20273;-59
2022/12/24 01:11:08;;;;;;;;;;;;;;;11.55;100.00;97287.50;5119752;28;20002;-60
2022/12/24 01:13:35;;;;;;;;;;;;;;;11.58;100.00;97289.63;5118451;28;19956;-60
2022/12/24 01:16:01;;;;;;;;;;;;;;;11.62;100.00;97284.50;5119711;28;19947;-60
2022/12/24 01:18:28;;;;;;;;;;;;;;;11.49;100.00;97280.63;5121870;28;19955;-59
2022/12/24 01:20:55;;;;;;;;;;;;;;;11.54;100.00;97283.28;5121144;28;19985;-58
2022/12/24 01:23:22;;;;;;;;;;;;;;;11.55;100.00;97284.84;5104056;28;19962;-61
2022/12/24 01:25:48;;;;;;;;;;;;;;;11.60;100.00;97282.13;5117971;28;19935;-60
2022/12/24 01:28:16;;;;;;;;;;;;;;;11.43;100.00;97283.63;5120750;28;19984;-58
2022/12/24 01:30:43;;;;;;;;;;;;;;;11.50;100.00;97295.59;5121843;28;19955;-59
2022/12/24 01:33:09;;;;;;;;;;;;;;;11.56;100.00;97310.50;5119034;28;19924;-59
2022/12/24 01:35:38;;;;;;;;;;;;;;;11.52;100.00;97312.16;5117911;28;19924;-59
2022/12/24 01:38:05;;;;;;;;;;;;;;;11.47;100.00;97319.44;5119727;28;19959;-59
2022/12/24 01:43:27;;;;;;;;;;;;;;;11.46;100.00;97328.53;5118169;28;19935;-59
2022/12/24 01:45:54;;;;;;;;;;;;;;;11.49;100.00;97331.44;5117949;28;20014;-59
2022/12/24 01:48:31;;;;;;;;;;;;;;;11.53;100.00;97340.50;5121190;28;19924;-59
2022/12/24 01:51:00;;;;;;;;;;;;;;;11.61;100.00;97347.88;5120144;28;19991;-59
2022/12/24 01:53:27;;;;;;;;;;;;;;;11.57;100.00;97352.22;5103953;28;20031;-60
2022/12/24 01:55:53;;;;;;;;;;;;;;;11.55;100.00;97359.72;5117852;28;19981;-59
2022/12/24 01:58:23;;;;;;;;;;;;;;;11.50;100.00;97350.94;5121314;28;20005;-59
2022/12/24 02:00:50;;;;;;;;;;;;;;;11.39;100.00;97356.38;5121055;28;19959;-59
2022/12/24 02:03:16;;;;;;;;;;;;;;;11.31;100.00;97367.69;5099495;28;19995;-59
2022/12/24 02:05:46;;;;;;;;;;;;;;;11.27;100.00;97352.47;5117548;28;20000;-58
2022/12/24 02:08:13;;;;;;;;;;;;;;;11.31;100.00;97346.31;5120475;28;19920;-59
2022/12/24 02:10:40;;;;;;;;;;;;;;;11.20;100.00;97347.47;5121312;28;19982;-57
2022/12/24 02:13:06;;;;;;;;;;;;;;;11.27;100.00;97352.47;5118768;28;19957;-58
2022/12/24 02:15:39;;;;;;;;;;;;;;;11.27;100.00;97344.47;5117858;28;19959;-59
2022/12/24 02:18:09;;;;;;;;;;;;;;;11.30;100.00;97357.28;5119989;28;19923;-59
2022/12/24 02:20:51;;;;;;;;;;;;;;;11.22;100.00;97357.88;5102993;28;19924;-59
2022/12/24 02:23:32;;;;;;;;;;;;;;;11.26;100.00;97367.72;5094243;28;20080;-60
2022/12/24 02:26:08;;;;;;;;;;;;;;;11.28;100.00;97383.50;5118975;28;19988;-58
2022/12/24 02:28:41;;;;;;;;;;;;;;;11.31;100.00;97378.38;5121262;28;19924;-58
2022/12/24 02:31:13;;;;;;;;;;;;;;;11.26;100.00;97374.97;5119513;28;19928;-59
2022/12/24 02:33:43;;;;;;;;;;;;;;;11.28;100.00;97388.84;5118024;28;19948;-60
2022/12/24 02:36:13;;;;;;;;;;;;;;;11.20;100.00;97387.53;5120033;28;19931;-59
2022/12/24 02:38:43;;;;;;;;;;;;;;;11.29;100.00;97385.09;5121337;28;19980;-59
2022/12/24 02:41:14;;;;;;;;;;;;;;;11.19;100.00;97377.16;5121959;28;19992;-59
2022/12/24 02:43:42;;;;;;;;;;;;;;;11.19;100.00;97380.63;5121626;28;19995;-61
2022/12/24 02:46:12;;;;;;;;;;;;;;;11.28;100.00;97386.16;5124054;28;19984;-59
2022/12/24 02:48:41;;;;;;;;;;;;;;;11.27;100.00;97387.22;5125132;28;19990;-60
2022/12/24 02:51:08;;;;;;;;;;;;;;;11.24;100.00;97390.47;5122901;28;19983;-59
2022/12/24 02:53:36;;;;;;;;;;;;;;;11.22;100.00;97401.44;5107288;28;19960;-59
2022/12/24 02:56:13;;;;;;;;;;;;;;;11.25;100.00;97414.25;5122788;28;20011;-61
2022/12/24 02:58:47;;;;;;;;;;;;;;;11.24;100.00;97427.88;5124707;28;19924;-59
2022/12/24 03:01:20;;;;;;;;;;;;;;;11.28;100.00;97421.72;5121356;28;19955;-59
2022/12/24 03:03:49;;;;;;;;;;;;;;;11.22;100.00;97422.03;5120580;28;19928;-59
2022/12/24 03:06:18;;;;;;;;;;;;;;;11.29;100.00;97419.84;5124170;28;19935;-58
2022/12/24 03:08:47;;;;;;;;;;;;;;;11.32;100.00;97429.97;5123992;28;19951;-60
2022/12/24 03:11:14;;;;;;;;;;;;;;;11.27;100.00;97425.47;5120933;28;19955;-59
2022/12/24 03:13:42;;;;;;;;;;;;;;;11.29;100.00;97417.97;5120638;28;19932;-59
2022/12/24 03:16:10;;;;;;;;;;;;;;;11.33;100.00;97423.53;5122671;28;19939;-59
2022/12/24 03:18:39;;;;;;;;;;;;;;;11.28;100.00;97450.31;5124346;28;19928;-59
2022/12/24 03:21:07;;;;;;;;;;;;;;;11.32;100.00;97451.38;5121878;28;19930;-59
2022/12/24 03:23:34;;;;;;;;;;;;;;;11.28;100.00;97453.78;5106443;28;19983;-59
2022/12/24 03:26:01;;;;;;;;;;;;;;;11.35;100.00;97451.59;5121409;28;19924;-59
2022/12/24 03:28:28;;;;;;;;;;;;;;;11.17;100.00;97460.25;5123793;28;19973;-59
2022/12/24 03:30:54;;;;;;;;;;;;;;;11.26;100.00;97455.94;5123094;28;19934;-58
2022/12/24 03:33:21;;;;;;;;;;;;;;;11.23;100.00;97453.03;5120071;28;19920;-58
2022/12/24 03:35:48;;;;;;;;;;;;;;;11.27;100.00;97462.88;5119855;28;19920;-58
2022/12/24 03:38:15;;;;;;;;;;;;;;;11.37;100.00;97451.31;5123156;28;19930;-58
2022/12/24 03:40:41;;;;;;;;;;;;;;;11.45;100.00;97456.06;5123389;28;19983;-59
2022/12/24 03:43:07;;;;;;;;;;;;;;;11.34;100.00;97467.91;5121044;28;19924;-59
2022/12/24 03:45:34;;;;;;;;;;;;;;;11.36;100.00;97469.22;5119773;28;19924;-59
2022/12/24 03:48:00;;;;;;;;;;;;;;;11.34;100.00;97466.03;5120731;28;19966;-58
2022/12/24 03:50:26;;;;;;;;;;;;;;;11.38;100.00;97463.63;5122563;28;19928;-59
2022/12/24 03:52:55;;;;;;;;;;;;;;;11.45;100.00;97474.78;5108994;28;19956;-58
2022/12/24 03:55:21;;;;;;;;;;;;;;;11.50;100.00;97472.09;5119757;28;19971;-60
2022/12/24 03:57:48;;;;;;;;;;;;;;;11.47;100.00;97475.31;5119384;28;19992;-59
2022/12/24 04:00:15;;;;;;;;;;;;;;;11.58;100.00;97486.72;5122780;28;19995;-59
2022/12/24 04:02:41;;;;;;;;;;;;;;;11.52;100.00;97496.66;5123065;28;19924;-58
2022/12/24 04:05:08;;;;;;;;;;;;;;;11.47;100.00;97502.06;5120795;28;19970;-59
2022/12/24 04:07:35;;;;;;;;;;;;;;;11.54;100.00;97494.53;5119666;28;19955;-60
2022/12/24 04:10:02;;;;;;;;;;;;;;;11.61;100.00;97502.19;5120671;28;19991;-59
2022/12/24 04:12:29;;;;;;;;;;;;;;;11.57;100.00;97502.00;5122850;28;19966;-59
2022/12/24 04:14:55;;;;;;;;;;;;;;;11.56;100.00;97497.72;5122200;28;19924;-59
2022/12/24 04:17:21;;;;;;;;;;;;;;;11.52;100.00;97510.03;5119336;28;19999;-59
2022/12/24 04:19:48;;;;;;;;;;;;;;;11.41;100.00;97518.41;5119049;28;19927;-59
2022/12/24 04:22:14;;;;;;;;;;;;;;;11.46;100.00;97513.00;5118811;28;19978;-59
2022/12/24 04:24:40;;;;;;;;;;;;;;;11.55;100.00;97520.16;5112061;28;19963;-59
2022/12/24 04:27:08;;;;;;;;;;;;;;;11.60;100.00;97519.34;5120350;28;19927;-58
2022/12/24 04:29:34;;;;;;;;;;;;;;;11.55;100.00;97522.03;5118936;28;19958;-60
2022/12/24 04:32:01;;;;;;;;;;;;;;;11.54;100.00;97523.94;5120072;28;19963;-60
2022/12/24 04:34:27;;;;;;;;;;;;;;;11.55;100.00;97520.16;5122309;28;19955;-60
2022/12/24 04:36:53;;;;;;;;;;;;;;;11.56;100.00;97524.44;5122100;28;19987;-58
2022/12/24 04:39:20;;;;;;;;;;;;;;;11.55;100.00;97520.16;5118870;28;19997;-59
2022/12/24 04:41:46;;;;;;;;;;;;;;;11.52;100.00;97518.06;5118674;28;19983;-60
2022/12/24 04:44:14;;;;;;;;;;;;;;;11.54;100.00;97520.47;5121508;28;19928;-60
2022/12/24 04:46:41;;;;;;;;;;;;;;;11.54;100.00;97521.25;5122282;28;19995;-59
2022/12/24 04:49:08;;;;;;;;;;;;;;;11.57;100.00;97531.41;5101673;28;19927;-60
2022/12/24 04:51:34;;;;;;;;;;;;;;;11.62;100.00;97525.22;5118604;28;19959;-59
2022/12/24 04:54:00;;;;;;;;;;;;;;;11.57;100.00;97542.09;5105561;28;19946;-59
2022/12/24 04:56:29;;;;;;;;;;;;;;;11.57;100.00;97538.63;5121964;28;19987;-60
2022/12/24 04:58:55;;;;;;;;;;;;;;;11.53;100.00;97549.06;5121430;28;19970;-60
2022/12/24 05:01:24;;;;;;;;;;;;;;;11.51;100.00;97547.75;5100283;28;19963;-59
2022/12/24 05:03:50;;;;;;;;;;;;;;;11.51;100.00;97556.59;5117672;28;19931;-59
2022/12/24 05:06:17;;;;;;;;;;;;;;;11.37;100.00;97560.94;5121718;28;19924;-59
2022/12/24 05:08:44;;;;;;;;;;;;;;;11.46;100.00;97558.47;5121604;28;19974;-60
2022/12/24 05:11:13;;;;;;;;;;;;;;;11.38;100.00;97558.00;5118976;28;19939;-60
2022/12/24 05:13:39;;;;;;;;;;;;;;;11.41;100.00;97559.31;5118319;28;19950;-60
2022/12/24 05:16:06;;;;;;;;;;;;;;;11.34;100.00;97567.63;5119974;28;19987;-60
2022/12/24 05:18:33;;;;;;;;;;;;;;;11.40;100.00;97571.06;5121638;28;20571;-59
2022/12/24 05:21:00;;;;;;;;;;;;;;;11.48;100.00;97570.47;5120269;28;19987;-60
2022/12/24 05:26:24;;;;;;;;;;;;;;;11.38;100.00;97576.72;5120501;28;19981;-59
2022/12/24 05:28:50;;;;;;;;;;;;;;;11.31;100.00;97578.88;5121416;28;19995;-59
2022/12/24 05:31:17;;;;;;;;;;;;;;;11.32;100.00;97575.13;5117950;28;19935;-60
2022/12/24 05:33:45;;;;;;;;;;;;;;;11.42;100.00;97579.59;5118141;28;19979;-61
2022/12/24 05:36:11;;;;;;;;;;;;;;;11.36;100.00;97578.03;5120515;28;20011;-60
2022/12/24 05:38:38;;;;;;;;;;;;;;;11.39;100.00;97588.19;5121434;28;19979;-59
2022/12/24 05:41:04;;;;;;;;;;;;;;;11.34;100.00;97583.66;5119377;28;20018;-60
2022/12/24 05:43:30;;;;;;;;;;;;;;;11.34;100.00;97588.22;5117754;28;19945;-60
2022/12/24 05:45:58;;;;;;;;;;;;;;;11.10;100.00;97588.06;5100378;28;19934;-60
2022/12/24 05:48:24;;;;;;;;;;;;;;;11.30;100.00;97597.84;5121302;28;19930;-60
2022/12/24 05:50:52;;;;;;;;;;;;;;;11.31;100.00;97596.78;5121175;28;20022;-60
2022/12/24 05:53:18;;;;;;;;;;;;;;;11.26;100.00;97607.50;5095481;28;19987;-59
2022/12/24 05:55:44;;;;;;;;;;;;;;;11.26;100.00;97602.94;5117519;28;19951;-59
2022/12/24 05:58:11;;;;;;;;;;;;;;;11.29;100.00;97607.78;5120216;28;19924;-58
2022/12/24 06:00:37;;;;;;;;;;;;;;;11.20;100.00;97608.59;5103101;28;20000;-59
2022/12/24 06:03:03;;;;;;;;;;;;;;;11.28;100.00;97613.38;5119342;28;19983;-58
2022/12/24 06:05:30;;;;;;;;;;;;;;;11.27;100.00;97614.44;5117808;28;19986;-59
2022/12/24 06:07:58;;;;;;;;;;;;;;;11.15;100.00;97622.78;5118235;28;19988;-60
2022/12/24 06:10:24;;;;;;;;;;;;;;;11.12;100.00;97628.66;5120890;28;19927;-59
2022/12/24 06:12:50;;;;;;;;;;;;;;;11.08;100.00;97630.28;5121133;28;19971;-59
2022/12/24 06:15:17;;;;;;;;;;;;;;;11.15;100.00;97627.31;5121036;28;19988;-60
2022/12/24 06:17:43;;;;;;;;;;;;;;;11.23;100.00;97629.44;5121518;28;19963;-59
2022/12/24 06:20:09;;;;;;;;;;;;;;;11.29;100.00;97625.69;5123921;28;19996;-61
2022/12/24 06:22:36;;;;;;;;;;;;;;;11.30;100.00;97630.72;5115154;28;19924;-59
2022/12/24 06:25:04;;;;;;;;;;;;;;;11.34;100.00;97628.31;5119056;28;19935;-58
2022/12/24 06:27:30;;;;;;;;;;;;;;;11.25;100.00;97624.63;5121362;28;20000;-59
2022/12/24 06:29:56;;;;;;;;;;;;;;;11.25;100.00;97622.75;5121586;28;19996;-58
2022/12/24 06:32:23;;;;;;;;;;;;;;;11.33;100.00;97632.84;5124525;28;19991;-58
2022/12/24 06:34:49;;;;;;;;;;;;;;;11.33;100.00;97627.50;5124660;28;19974;-58
2022/12/24 06:37:17;;;;;;;;;;;;;;;11.16;100.00;97623.59;5121302;28;19924;-58
2022/12/24 06:39:44;;;;;;;;;;;;;;;11.20;100.00;97627.31;5121199;28;19924;-59
2022/12/24 06:42:11;;;;;;;;;;;;;;;11.20;100.00;97624.66;5123604;28;19962;-59
2022/12/24 06:44:38;;;;;;;;;;;;;;;11.26;100.00;97627.00;5124857;28;19923;-59
2022/12/24 06:47:04;;;;;;;;;;;;;;;11.24;100.00;97631.81;5123095;28;19946;-59
2022/12/24 06:49:30;;;;;;;;;;;;;;;11.17;100.00;97639.34;5121256;28;19984;-58
2022/12/24 06:51:57;;;;;;;;;;;;;;;11.22;100.00;97649.22;5121653;28;19924;-58
2022/12/24 06:54:23;;;;;;;;;;;;;;;11.20;100.00;97646.03;5110728;28;19984;-58
2022/12/24 06:56:49;;;;;;;;;;;;;;;11.20;100.00;97656.72;5124636;28;19923;-59
2022/12/24 06:59:17;;;;;;;;;;;;;;;11.06;100.00;97650.34;5121018;28;19931;-59
2022/12/24 07:01:43;;;;;;;;;;;;;;;11.04;100.00;97657.84;5120619;28;19966;-59
2022/12/24 07:04:10;;;;;;;;;;;;;;;11.08;100.00;97658.91;5122957;28;19951;-59
2022/12/24 07:06:36;;;;;;;;;;;;;;;11.05;100.00;97659.44;5123880;28;20051;-58
2022/12/24 07:09:02;;;;;;;;;;;;;;;11.10;100.00;97660.22;5122572;28;19949;-58
2022/12/24 07:11:29;;;;;;;;;;;;;;;11.10;100.00;97664.75;5120352;28;19938;-59
2022/12/24 07:13:55;;;;;;;;;;;;;;;11.12;100.00;97660.75;5120727;28;19924;-59
2022/12/24 07:16:23;;;;;;;;;;;;;;;10.98;100.00;97666.94;5123829;28;19950;-59
2022/12/24 07:18:49;;;;;;;;;;;;;;;10.88;100.00;97658.94;5123705;28;20634;-59
2022/12/24 07:21:16;;;;;;;;;;;;;;;11.00;100.00;97664.78;5120268;28;19962;-59
2022/12/24 07:23:42;;;;;;;;;;;;;;;10.93;100.00;97666.94;5105993;28;19992;-60
2022/12/24 07:26:08;;;;;;;;;;;;;;;11.00;100.00;97673.59;5121490;28;19960;-59
2022/12/24 07:28:35;;;;;;;;;;;;;;;11.03;100.00;97680.28;5123820;28;19982;-59
2022/12/24 07:31:01;;;;;;;;;;;;;;;10.84;100.00;97686.19;5122304;28;19923;-59
2022/12/24 07:33:29;;;;;;;;;;;;;;;10.98;100.00;97696.31;5120292;28;19920;-58
2022/12/24 07:35:59;;;;;;;;;;;;;;;10.87;100.00;97694.72;5120383;28;19959;-59
2022/12/24 07:38:26;;;;;;;;;;;;;;;10.99;100.00;97704.06;5123597;28;19919;-59
2022/12/24 07:40:52;;;;;;;;;;;;;;;11.05;100.00;97711.00;5123408;28;19970;-58
2022/12/24 07:43:18;;;;;;;;;;;;;;;10.93;100.00;97717.69;5111500;28;20352;-59
2022/12/24 07:45:45;;;;;;;;;;;;;;;10.90;100.00;97721.72;5119845;28;19966;-58
2022/12/24 07:48:11;;;;;;;;;;;;;;;10.98;100.00;97728.38;5122346;28;19924;-59
2022/12/24 07:50:39;;;;;;;;;;;;;;;11.00;100.00;97716.34;5123101;28;19955;-59
2022/12/24 07:53:05;;;;;;;;;;;;;;;10.86;100.00;97733.22;5107140;28;19979;-60
2022/12/24 07:55:31;;;;;;;;;;;;;;;10.87;100.00;97740.94;5119599;28;19991;-59
2022/12/24 07:57:58;;;;;;;;;;;;;;;10.72;100.00;97731.09;5120009;28;19920;-59
2022/12/24 08:00:24;;;;;;;;;;;;;;;10.74;100.00;97725.47;5122990;28;19962;-59
2022/12/24 08:02:50;;;;;;;;;;;;;;;10.75;100.00;97724.41;5122774;28;20014;-58
2022/12/24 08:05:17;;;;;;;;;;;;;;;10.87;100.00;97721.44;5119347;28;19983;-58
2022/12/24 08:07:44;;;;;;;;;;;;;;;10.94;100.00;97722.78;5119391;28;19955;-59
2022/12/24 08:10:11;;;;;;;;;;;;;;;10.97;100.00;97737.47;5121716;28;19959;-59
2022/12/24 08:12:37;;;;;;;;;;;;;;;10.96;100.00;97741.19;5122657;28;20000;-60
2022/12/24 08:15:04;;;;;;;;;;;;;;;10.89;100.00;97741.50;5121145;28;20058;-59
2022/12/24 08:17:30;;;;;;;;;;;;;;;10.96;100.00;97746.53;5119204;28;19943;-59
2022/12/24 08:19:56;;;;;;;;;;;;;;;10.96;100.00;97744.69;5119722;28;19927;-59
2022/12/24 08:22:23;;;;;;;;;;;;;;;11.09;100.00;97740.66;5116783;28;19939;-59
2022/12/24 08:24:50;;;;;;;;;;;;;;;11.07;100.00;97742.81;5114543;28;19963;-60
2022/12/24 08:27:17;;;;;;;;;;;;;;;11.11;100.00;97747.31;5119077;28;19952;-59
2022/12/24 08:29:43;;;;;;;;;;;;;;;11.05;100.00;97750.31;5119220;28;20376;-58
2022/12/24 08:32:09;;;;;;;;;;;;;;;11.17;100.00;97737.44;5121658;28;19920;-59
2022/12/24 08:34:36;;;;;;;;;;;;;;;11.05;100.00;97744.97;5123368;28;19979;-61
2022/12/24 08:37:02;;;;;;;;;;;;;;;10.89;100.00;97748.72;5120921;28;20615;-60
2022/12/24 08:39:29;;;;;;;;;;;;;;;11.10;100.00;97755.63;5118889;28;20014;-59
2022/12/24 08:41:57;;;;;;;;;;;;;;;11.12;100.00;97751.59;5119138;28;19924;-59
2022/12/24 08:44:23;;;;;;;;;;;;;;;11.16;100.00;97749.19;5122384;28;20037;-58
2022/12/24 08:46:49;;;;;;;;;;;;;;;11.20;100.00;97750.28;5122230;28;19969;-60
2022/12/24 08:49:16;;;;;;;;;;;;;;;11.11;100.00;97765.25;5119016;28;19951;-60
2022/12/24 08:51:42;;;;;;;;;;;;;;;11.21;100.00;97760.69;5118599;28;19966;-59
2022/12/24 08:54:08;;;;;;;;;;;;;;;11.24;100.00;97770.03;5106240;28;19924;-59
2022/12/24 08:56:35;;;;;;;;;;;;;;;11.01;100.00;97775.94;5121997;28;20004;-58
2022/12/24 08:59:02;;;;;;;;;;;;;;;11.17;100.00;97788.22;5120753;28;19946;-59
2022/12/24 09:01:30;;;;;;;;;;;;;;;11.25;100.00;97793.03;5118451;28;19980;-58
2022/12/24 09:03:56;;;;;;;;;;;;;;;11.07;100.00;97794.38;5118842;28;20008;-59
2022/12/24 09:06:23;;;;;;;;;;;;;;;11.14;100.00;97802.91;5121730;28;19991;-60
2022/12/24 09:08:49;;;;;;;;;;;;;;;11.07;100.00;97807.75;5121619;28;19938;-60
2022/12/24 09:11:17;;;;;;;;;;;;;;;11.02;100.00;97814.94;5118282;28;20011;-58
2022/12/24 09:13:43;;;;;;;;;;;;;;;11.01;100.00;97816.84;5118080;28;19977;-60
2022/12/24 09:16:11;;;;;;;;;;;;;;;10.88;100.00;97813.88;5120347;28;19928;-59
2022/12/24 09:18:38;;;;;;;;;;;;;;;11.15;100.00;97827.78;5121556;28;20014;-59
2022/12/24 09:21:05;;;;;;;;;;;;;;;11.13;100.00;97827.25;5119668;28;19959;-59
2022/12/24 09:23:34;;;;;;;;;;;;;;;11.21;100.00;97821.34;5103530;28;19960;-60
2022/12/24 09:26:00;;;;;;;;;;;;;;;11.21;100.00;97826.69;5118918;28;19967;-60
2022/12/24 09:28:27;;;;;;;;;;;;;;;11.23;100.00;97816.56;5121552;28;20018;-59
2022/12/24 09:30:57;;;;;;;;;;;;;;;11.19;100.00;97826.16;5121274;28;19999;-59
2022/12/24 09:33:25;;;;;;;;;;;;;;;11.09;100.00;97829.66;5117755;28;19934;-59
2022/12/24 09:35:51;;;;;;;;;;;;;;;11.19;100.00;97820.81;5117917;28;19963;-59
2022/12/24 09:38:18;;;;;;;;;;;;;;;11.08;100.00;97829.94;5109335;28;19920;-59
2022/12/24 09:40:44;;;;;;;;;;;;;;;11.03;100.00;97830.72;5117773;28;19999;-59
2022/12/24 09:43:13;;;;;;;;;;;;;;;10.99;100.00;97842.19;5120260;28;19970;-59
2022/12/24 09:45:43;;;;;;;;;;;;;;;10.98;100.00;97829.94;5121221;28;20055;-59
2022/12/24 09:48:13;;;;;;;;;;;;;;;10.99;100.00;97844.88;5118093;28;20003;-59
2022/12/24 09:50:43;;;;;;;;;;;;;;;11.12;100.00;97844.34;5117285;28;19959;-58
2022/12/24 09:53:14;;;;;;;;;;;;;;;11.22;100.00;97857.72;5110187;28;19929;-59
2022/12/24 09:55:42;;;;;;;;;;;;;;;11.12;100.00;97857.72;5117440;28;19963;-58
2022/12/24 09:58:16;;;;;;;;;;;;;;;11.04;100.00;97839.53;5119628;28;19970;-58
2022/12/24 10:00:42;;;;;;;;;;;;;;;11.01;100.00;97848.91;5121192;28;20003;-58
2022/12/24 10:03:12;;;;;;;;;;;;;;;11.09;100.00;97847.56;5118591;28;20074;-59
2022/12/24 10:05:43;;;;;;;;;;;;;;;11.15;100.00;97851.81;5117391;28;19967;-59
2022/12/24 10:08:15;;;;;;;;;;;;;;;11.19;100.00;97852.91;5119550;28;19995;-58
2022/12/24 10:10:46;;;;;;;;;;;;;;;11.11;100.00;97862.25;5120933;28;19927;-59
2022/12/24 10:13:15;;;;;;;;;;;;;;;11.01;100.00;97858.78;5118085;28;19943;-60
2022/12/24 10:15:48;;;;;;;;;;;;;;;11.05;100.00;97855.28;5117429;28;19974;-59
2022/12/24 10:18:24;;;;;;;;;;;;;;;11.09;100.00;97858.25;5120519;28;19962;-59
2022/12/24 10:20:54;;;;;;;;;;;;;;;10.95;100.00;97852.66;5120703;28;19951;-59
2022/12/24 10:23:23;;;;;;;;;;;;;;;10.92;100.00;97847.03;5094770;28;19976;-60
2022/12/24 10:25:53;;;;;;;;;;;;;;;10.84;100.00;97851.81;5117228;28;19991;-59
2022/12/24 10:28:23;;;;;;;;;;;;;;;10.75;100.00;97857.94;5108883;28;19983;-59
2022/12/24 10:30:55;;;;;;;;;;;;;;;10.98;100.00;97856.66;5117052;28;19983;-59
2022/12/24 10:33:26;;;;;;;;;;;;;;;10.92;100.00;97855.03;5109251;28;20015;-59
2022/12/24 10:35:55;;;;;;;;;;;;;;;10.95;100.00;97857.19;5117266;28;20663;-59
2022/12/24 10:38:22;;;;;;;;;;;;;;;10.86;100.00;97859.59;5109355;28;20324;-58
2022/12/24 10:40:50;;;;;;;;;;;;;;;10.72;100.00;97861.97;5117247;28;19924;-59
2022/12/24 10:43:17;;;;;;;;;;;;;;;10.83;100.00;97860.88;5120490;28;19923;-59
2022/12/24 10:45:46;;;;;;;;;;;;;;;10.77;100.00;97856.59;5120718;28;19965;-60
2022/12/24 10:48:16;;;;;;;;;;;;;;;10.76;100.00;97855.03;5117834;28;20434;-59
2022/12/24 10:50:48;;;;;;;;;;;;;;;10.82;100.00;97858.50;5117310;28;19920;-59
2022/12/24 10:53:18;;;;;;;;;;;;;;;10.99;100.00;97864.38;5109927;28;20476;-58
2022/12/24 10:55:47;;;;;;;;;;;;;;;11.07;100.00;97871.06;5117070;28;19995;-59
2022/12/24 10:58:15;;;;;;;;;;;;;;;10.81;100.00;97863.03;5101726;28;19927;-59
2022/12/24 11:00:42;;;;;;;;;;;;;;;10.86;100.00;97869.47;5121002;28;20102;-59
2022/12/24 11:03:21;;;;;;;;;;;;;;;11.15;100.00;97873.22;5121933;28;20002;-60
2022/12/24 11:05:58;;;;;;;;;;;;;;;10.99;100.00;97871.59;5120642;28;19983;-60
2022/12/24 11:08:26;;;;;;;;;;;;;;;11.15;100.00;97867.88;5113173;28;20059;-59
2022/12/24 11:10:55;;;;;;;;;;;;;;;11.11;100.00;97851.56;5120507;28;19955;-59
2022/12/24 11:13:23;;;;;;;;;;;;;;;11.29;100.00;97861.72;5112545;28;19924;-59
2022/12/24 11:15:51;;;;;;;;;;;;;;;11.07;100.00;97860.38;5120290;28;19943;-59
2022/12/24 11:18:18;;;;;;;;;;;;;;;11.08;100.00;97856.66;5123874;28;19982;-59
2022/12/24 11:20:49;;;;;;;;;;;;;;;11.15;100.00;97862.50;5123757;28;20068;-60
2022/12/24 11:23:16;;;;;;;;;;;;;;;11.23;100.00;97862.78;5106008;28;19924;-59
2022/12/24 11:25:47;;;;;;;;;;;;;;;11.31;100.00;97864.13;5120223;28;19932;-59
2022/12/24 11:28:19;;;;;;;;;;;;;;;11.41;100.00;97864.13;5122950;28;20034;-58
2022/12/24 11:30:54;;;;;;;;;;;;;;;11.34;100.00;97855.56;5123843;28;20019;-59
2022/12/24 11:33:21;;;;;;;;;;;;;;;11.33;100.00;97857.44;5112048;28;19992;-59
2022/12/24 11:36:02;;;;;;;;;;;;;;;11.46;100.00;97849.94;5120225;28;20412;-60
2022/12/24 11:38:29;;;;;;;;;;;;;;;11.23;100.00;97857.44;5113157;28;19951;-59
2022/12/24 11:41:05;;;;;;;;;;;;;;;11.12;100.00;97849.69;5120135;28;20007;-59
2022/12/24 11:43:44;;;;;;;;;;;;;;;11.19;100.00;97847.56;5123609;28;19927;-59
2022/12/24 11:46:14;;;;;;;;;;;;;;;11.42;100.00;97863.03;5121073;28;19928;-59
2022/12/24 11:48:41;;;;;;;;;;;;;;;11.45;100.00;97849.13;5119981;28;20090;-60
2022/12/24 11:51:18;;;;;;;;;;;;;;;11.44;100.00;97854.75;5121602;28;19924;-60
2022/12/24 11:53:47;;;;;;;;;;;;;;;11.58;100.00;97840.56;5108809;28;19924;-58
2022/12/24 11:56:18;;;;;;;;;;;;;;;11.64;100.00;97839.47;5122470;28;19943;-61
2022/12/24 11:58:46;;;;;;;;;;;;;;;11.59;100.00;97846.69;5123385;28;19970;-59
2022/12/24 12:01:15;;;;;;;;;;;;;;;11.62;100.00;97840.81;5120746;28;19924;-59
2022/12/24 12:03:43;;;;;;;;;;;;;;;11.48;100.00;97832.53;5119976;28;19959;-60
2022/12/24 12:06:16;;;;;;;;;;;;;;;11.44;100.00;97828.81;5121977;28;19924;-58
2022/12/24 12:08:43;;;;;;;;;;;;;;;11.44;100.00;97831.50;5123426;28;19980;-59
2022/12/24 12:11:11;;;;;;;;;;;;;;;11.37;100.00;97838.97;5120704;28;19923;-58
2022/12/24 12:13:41;;;;;;;;;;;;;;;11.53;100.00;97835.22;5119105;28;19963;-60
2022/12/24 12:16:13;;;;;;;;;;;;;;;11.49;100.00;97833.34;5121318;28;19971;-59
2022/12/24 12:18:41;;;;;;;;;;;;;;;11.56;100.00;97837.34;5123119;28;19955;-59
2022/12/24 12:21:12;;;;;;;;;;;;;;;11.51;100.00;97839.25;5120870;28;20435;-58
2022/12/24 12:23:44;;;;;;;;;;;;;;;11.60;100.00;97841.09;5104597;28;20023;-58
2022/12/24 12:26:12;;;;;;;;;;;;;;;11.40;100.00;97838.44;5121254;28;19938;-59
2022/12/24 12:28:43;;;;;;;;;;;;;;;11.31;100.00;97834.72;5122660;28;19953;-59
2022/12/24 12:31:12;;;;;;;;;;;;;;;11.47;100.00;97857.69;5120090;28;19959;-59
2022/12/24 12:33:40;;;;;;;;;;;;;;;11.23;100.00;97854.75;5118995;28;19963;-59
2022/12/24 12:36:08;;;;;;;;;;;;;;;11.46;100.00;97855.28;5120491;28;20000;-59
2022/12/24 12:38:34;;;;;;;;;;;;;;;11.35;100.00;97854.50;5122534;28;20026;-59
2022/12/24 12:41:03;;;;;;;;;;;;;;;11.31;100.00;97851.56;5121172;28;19991;-59
2022/12/24 12:43:38;;;;;;;;;;;;;;;11.26;100.00;97846.19;5118752;28;19979;-59